createdAt,value
2022-08-31T00:01:20.774Z,16.96
2022-08-31T00:04:02.568Z,16.90
2022-08-31T00:06:30.658Z,16.86
2022-08-31T00:08:58.271Z,16.82
2022-08-31T00:11:31.017Z,16.80
2022-08-31T00:14:01.579Z,16.72
2022-08-31T00:16:33.186Z,16.74
2022-08-31T00:19:02.164Z,16.57
2022-08-31T00:21:29.666Z,16.58
2022-08-31T00:23:57.282Z,16.53
2022-08-31T00:26:25.441Z,16.61
2022-08-31T00:28:54.456Z,16.56
2022-08-31T00:31:22.157Z,16.53
2022-08-31T00:33:52.427Z,16.47
2022-08-31T00:36:21.890Z,16.41
2022-08-31T00:38:49.900Z,16.43
2022-08-31T00:41:20.196Z,16.39
2022-08-31T00:43:49.598Z,16.39
2022-08-31T00:46:21.067Z,16.36
2022-08-31T00:48:56.688Z,16.43
2022-08-31T00:51:24.720Z,16.37
2022-08-31T00:53:52.947Z,16.39
2022-08-31T00:56:21.438Z,16.29
2022-08-31T00:58:54.571Z,16.21
2022-08-31T01:01:24.601Z,16.13
2022-08-31T01:03:52.211Z,16.36
2022-08-31T01:06:20.076Z,16.41
2022-08-31T01:08:56.477Z,16.34
2022-08-31T01:11:24.143Z,16.08
2022-08-31T01:13:51.766Z,15.73
2022-08-31T01:16:23.951Z,15.66
2022-08-31T01:18:54.005Z,15.64
2022-08-31T01:21:27.296Z,15.64
2022-08-31T01:24:00.083Z,15.57
2022-08-31T01:26:30.198Z,15.52
2022-08-31T01:29:01.557Z,15.43
2022-08-31T01:31:32.868Z,15.20
2022-08-31T01:34:02.406Z,15.07
2022-08-31T01:36:31.433Z,15.01
2022-08-31T01:39:00.264Z,14.90
2022-08-31T01:41:27.852Z,14.85
2022-08-31T01:43:56.963Z,14.79
2022-08-31T01:46:25.280Z,14.79
2022-08-31T01:48:53.188Z,14.85
2022-08-31T01:51:22.987Z,14.80
2022-08-31T01:53:52.320Z,14.76
2022-08-31T01:56:24.614Z,14.84
2022-08-31T01:58:52.692Z,14.84
2022-08-31T02:01:34.424Z,14.83
2022-08-31T02:04:02.875Z,14.78
2022-08-31T02:06:30.406Z,14.72
2022-08-31T02:08:57.940Z,14.63
2022-08-31T02:11:26.946Z,14.61
2022-08-31T02:13:54.585Z,14.48
2022-08-31T02:16:22.317Z,14.42
2022-08-31T02:18:50.111Z,14.35
2022-08-31T02:21:17.681Z,14.38
2022-08-31T02:23:45.359Z,14.41
2022-08-31T02:26:12.911Z,14.55
2022-08-31T02:28:42.272Z,14.58
2022-08-31T02:31:09.941Z,14.55
2022-08-31T02:33:37.482Z,14.58
2022-08-31T02:36:05.610Z,14.54
2022-08-31T02:38:33.783Z,14.53
2022-08-31T02:41:02.207Z,14.45
2022-08-31T02:43:29.851Z,14.54
2022-08-31T02:45:59.010Z,14.62
2022-08-31T02:48:26.574Z,14.63
2022-08-31T02:50:54.552Z,14.62
2022-08-31T02:53:23.825Z,14.64
2022-08-31T02:55:51.952Z,14.66
2022-08-31T02:58:23.880Z,14.71
2022-08-31T03:00:52.113Z,14.51
2022-08-31T03:03:21.836Z,14.42
2022-08-31T03:05:49.490Z,14.30
2022-08-31T03:08:17.032Z,14.28
2022-08-31T03:10:44.536Z,14.29
2022-08-31T03:13:12.279Z,14.08
2022-08-31T03:15:39.959Z,13.99
2022-08-31T03:18:07.550Z,14.06
2022-08-31T03:20:36.650Z,14.01
2022-08-31T03:23:04.515Z,13.93
2022-08-31T03:25:32.047Z,13.93
2022-08-31T03:27:59.792Z,13.82
2022-08-31T03:30:29.833Z,13.77
2022-08-31T03:32:59.343Z,13.70
2022-08-31T03:35:31.073Z,13.67
2022-08-31T03:38:00.974Z,13.72
2022-08-31T03:40:28.556Z,13.68
2022-08-31T03:42:57.520Z,13.68
2022-08-31T03:45:25.215Z,13.71
2022-08-31T03:47:52.671Z,13.73
2022-08-31T03:50:20.602Z,13.78
2022-08-31T03:52:48.042Z,13.81
2022-08-31T03:55:17.005Z,14.04
2022-08-31T03:57:44.472Z,14.07
2022-08-31T04:00:13.021Z,14.16
2022-08-31T04:02:40.893Z,14.27
2022-08-31T04:05:09.885Z,14.22
2022-08-31T04:07:42.441Z,14.18
2022-08-31T04:10:11.899Z,14.04
2022-08-31T04:12:41.588Z,13.83
2022-08-31T04:15:09.909Z,13.81
2022-08-31T04:17:38.029Z,13.86
2022-08-31T04:20:06.748Z,13.80
2022-08-31T04:22:34.410Z,13.91
2022-08-31T04:25:01.862Z,14.01
2022-08-31T04:27:29.347Z,13.89
2022-08-31T04:29:58.167Z,13.90
2022-08-31T04:32:25.624Z,13.87
2022-08-31T04:34:56.449Z,13.74
2022-08-31T04:37:24.359Z,13.77
2022-08-31T04:39:56.116Z,13.76
2022-08-31T04:42:26.651Z,13.72
2022-08-31T04:44:54.106Z,13.90
2022-08-31T04:47:22.947Z,14.08
2022-08-31T04:49:50.666Z,14.08
2022-08-31T04:52:18.120Z,14.09
2022-08-31T04:54:49.423Z,13.97
2022-08-31T04:57:16.888Z,13.96
2022-08-31T04:59:44.342Z,13.99
2022-08-31T05:02:11.876Z,13.95
2022-08-31T05:04:40.686Z,13.96
2022-08-31T05:07:08.204Z,13.86
2022-08-31T05:09:36.336Z,13.87
2022-08-31T05:12:04.462Z,13.82
2022-08-31T05:14:31.975Z,13.82
2022-08-31T05:17:01.135Z,13.99
2022-08-31T05:19:28.765Z,14.07
2022-08-31T05:21:57.572Z,14.11
2022-08-31T05:24:25.024Z,14.08
2022-08-31T05:26:55.213Z,14.04
2022-08-31T05:29:25.356Z,14.07
2022-08-31T05:31:53.196Z,14.04
2022-08-31T05:34:21.536Z,14.06
2022-08-31T05:36:52.511Z,14.04
2022-08-31T05:39:21.648Z,14.09
2022-08-31T05:41:49.632Z,14.18
2022-08-31T05:44:20.816Z,14.32
2022-08-31T05:46:54.819Z,14.42
2022-08-31T05:49:28.481Z,14.45
2022-08-31T05:51:57.033Z,14.48
2022-08-31T05:54:25.971Z,14.55
2022-08-31T05:56:53.460Z,14.57
2022-08-31T05:59:21.072Z,14.48
2022-08-31T06:01:48.627Z,14.41
2022-08-31T06:04:16.144Z,14.34
2022-08-31T06:06:43.644Z,14.36
2022-08-31T06:09:11.143Z,14.38
2022-08-31T06:11:41.967Z,14.38
2022-08-31T06:14:11.975Z,14.34
2022-08-31T06:16:40.515Z,14.43
2022-08-31T06:19:08.309Z,14.46
2022-08-31T06:21:38.348Z,14.51
2022-08-31T06:24:09.457Z,14.66
2022-08-31T06:26:41.579Z,14.83
2022-08-31T06:29:09.295Z,14.88
2022-08-31T06:31:38.718Z,14.94
2022-08-31T06:34:08.157Z,15.04
2022-08-31T06:36:36.294Z,15.05
2022-08-31T06:39:05.364Z,14.96
2022-08-31T06:41:36.822Z,15.01
2022-08-31T06:44:08.721Z,15.06
2022-08-31T06:46:38.668Z,14.95
2022-08-31T06:49:08.755Z,15.11
2022-08-31T06:51:37.943Z,15.20
2022-08-31T06:54:27.540Z,15.34
2022-08-31T06:56:54.685Z,15.53
2022-08-31T06:59:28.279Z,15.60
2022-08-31T07:01:56.749Z,15.70
2022-08-31T07:04:24.276Z,15.72
2022-08-31T07:06:51.864Z,15.74
2022-08-31T07:09:19.795Z,15.63
2022-08-31T07:11:48.929Z,15.77
2022-08-31T07:14:19.381Z,15.70
2022-08-31T07:16:48.970Z,15.82
2022-08-31T07:19:16.971Z,15.91
2022-08-31T07:21:46.229Z,15.95
2022-08-31T07:24:15.713Z,15.94
2022-08-31T07:26:45.804Z,15.93
2022-08-31T07:29:16.073Z,15.94
2022-08-31T07:31:46.215Z,15.87
2022-08-31T07:34:25.506Z,15.95
2022-08-31T07:37:11.551Z,16.20
2022-08-31T07:39:57.318Z,16.47
2022-08-31T07:42:28.584Z,16.55
2022-08-31T07:44:57.736Z,16.53
2022-08-31T07:47:28.912Z,16.83
2022-08-31T07:49:59.668Z,17.04
2022-08-31T07:52:30.280Z,17.18
2022-08-31T07:55:09.245Z,17.14
2022-08-31T07:57:43.942Z,17.35
2022-08-31T08:00:14.407Z,17.46
2022-08-31T08:02:46.125Z,17.19
2022-08-31T08:05:27.495Z,17.25
2022-08-31T08:08:00.047Z,17.51
2022-08-31T08:10:27.528Z,18.02
2022-08-31T08:13:04.758Z,17.97
2022-08-31T08:15:35.535Z,18.13
2022-08-31T08:18:04.248Z,18.05
2022-08-31T08:20:37.262Z,18.32
2022-08-31T08:23:08.960Z,18.52
2022-08-31T08:25:38.426Z,18.79
2022-08-31T08:28:22.553Z,18.94
2022-08-31T08:30:54.358Z,18.83
2022-08-31T08:33:22.258Z,19.02
2022-08-31T08:35:57.706Z,19.43
2022-08-31T08:38:25.929Z,19.58
2022-08-31T08:40:54.396Z,19.72
2022-08-31T08:43:31.108Z,19.54
2022-08-31T08:46:06.837Z,19.21
2022-08-31T08:48:55.859Z,19.31
2022-08-31T08:51:32.576Z,19.38
2022-08-31T08:54:07.970Z,19.47
2022-08-31T08:56:36.333Z,19.31
2022-08-31T08:59:09.947Z,19.58
2022-08-31T09:01:38.545Z,19.58
2022-08-31T09:04:12.708Z,20.02
2022-08-31T09:06:54.733Z,19.32
2022-08-31T09:09:38.681Z,19.18
2022-08-31T09:12:20.765Z,18.61
2022-08-31T09:15:04.303Z,18.78
2022-08-31T09:17:42.686Z,18.87
2022-08-31T09:20:13.116Z,18.89
2022-08-31T09:22:46.820Z,18.68
2022-08-31T09:25:16.596Z,18.67
2022-08-31T09:27:47.909Z,18.54
2022-08-31T09:30:34.925Z,18.82
2022-08-31T09:33:03.238Z,18.95
2022-08-31T09:35:41.245Z,18.44
2022-08-31T09:38:15.116Z,18.38
2022-08-31T09:40:44.990Z,18.89
2022-08-31T09:43:22.641Z,18.86
2022-08-31T09:45:56.582Z,19.21
2022-08-31T09:48:43.331Z,19.22
2022-08-31T09:51:20.340Z,18.79
2022-08-31T09:54:07.059Z,19.17
2022-08-31T09:56:52.382Z,19.02
2022-08-31T09:59:33.940Z,19.03
2022-08-31T10:02:02.500Z,19.01
2022-08-31T10:04:37.970Z,18.75
2022-08-31T10:07:14.459Z,18.78
2022-08-31T10:09:47.011Z,18.46
2022-08-31T10:12:22.728Z,18.73
2022-08-31T10:14:57.140Z,18.81
2022-08-31T10:17:32.138Z,18.78
2022-08-31T10:20:07.928Z,18.98
2022-08-31T10:22:41.743Z,19.00
2022-08-31T10:25:21.344Z,19.03
2022-08-31T10:27:52.434Z,18.98
2022-08-31T10:30:29.618Z,18.95
2022-08-31T10:33:05.657Z,19.08
2022-08-31T10:35:42.389Z,19.08
2022-08-31T10:38:24.005Z,18.79
2022-08-31T10:41:02.415Z,19.02
2022-08-31T10:43:35.424Z,19.04
2022-08-31T10:46:03.447Z,18.92
2022-08-31T10:48:33.180Z,18.87
2022-08-31T10:51:13.249Z,18.73
2022-08-31T10:54:02.905Z,18.94
2022-08-31T10:56:41.578Z,18.93
2022-08-31T10:59:19.698Z,18.87
2022-08-31T11:01:57.601Z,19.03
2022-08-31T11:04:43.431Z,18.83
2022-08-31T11:07:24.961Z,19.14
2022-08-31T11:09:59.840Z,19.29
2022-08-31T11:12:44.310Z,19.19
2022-08-31T11:15:31.675Z,19.36
2022-08-31T11:18:36.095Z,19.61
2022-08-31T11:21:21.774Z,19.43
2022-08-31T11:24:05.732Z,19.39
2022-08-31T11:26:57.569Z,19.24
2022-08-31T11:29:36.452Z,19.34
2022-08-31T11:32:12.646Z,19.11
2022-08-31T11:34:50.515Z,19.21
2022-08-31T11:37:55.871Z,19.54
2022-08-31T11:41:03.594Z,18.97
2022-08-31T11:43:53.708Z,19.54
2022-08-31T11:46:56.835Z,19.73
2022-08-31T11:49:42.148Z,19.73
2022-08-31T11:52:25.364Z,19.98
2022-08-31T11:55:27.009Z,20.17
2022-08-31T11:58:20.824Z,19.94
2022-08-31T12:00:53.955Z,19.67
2022-08-31T12:03:50.413Z,19.78
2022-08-31T12:07:10.983Z,19.96
2022-08-31T12:10:03.120Z,19.88
2022-08-31T12:12:43.035Z,19.81
2022-08-31T12:15:21.339Z,20.11
2022-08-31T12:18:09.888Z,20.12
2022-08-31T12:21:11.637Z,19.80
2022-08-31T12:23:49.871Z,19.85
2022-08-31T12:26:30.823Z,19.97
2022-08-31T12:29:21.647Z,20.20
2022-08-31T12:32:10.901Z,20.43
2022-08-31T12:34:43.450Z,20.15
2022-08-31T12:37:22.963Z,19.87
2022-08-31T12:39:50.556Z,20.38
2022-08-31T12:42:19.739Z,20.84
2022-08-31T12:44:52.947Z,20.99
2022-08-31T12:47:30.119Z,21.12
2022-08-31T12:50:07.899Z,21.39
2022-08-31T12:52:52.595Z,21.28
2022-08-31T12:55:27.697Z,21.69
2022-08-31T12:58:10.554Z,21.75
2022-08-31T13:00:39.816Z,21.37
2022-08-31T13:03:17.189Z,21.96
2022-08-31T13:06:00.880Z,21.97
2022-08-31T13:08:28.398Z,21.44
2022-08-31T13:10:55.965Z,20.95
2022-08-31T13:13:27.742Z,21.17
2022-08-31T13:16:02.338Z,21.44
2022-08-31T13:18:31.062Z,22.10
2022-08-31T13:21:05.713Z,21.65
2022-08-31T13:23:38.359Z,21.69
2022-08-31T13:26:09.873Z,21.52
2022-08-31T13:28:38.741Z,21.23
2022-08-31T13:31:09.043Z,21.26
2022-08-31T13:33:39.999Z,20.87
2022-08-31T13:36:11.087Z,20.92
2022-08-31T13:38:47.568Z,21.13
2022-08-31T13:41:24.015Z,20.87
2022-08-31T13:43:58.966Z,20.80
2022-08-31T13:46:42.343Z,20.89
2022-08-31T13:49:25.948Z,21.48
2022-08-31T13:51:53.602Z,21.61
2022-08-31T13:54:27.871Z,21.40
2022-08-31T13:57:01.763Z,21.73
2022-08-31T13:59:36.233Z,21.32
2022-08-31T14:02:36.374Z,21.48
2022-08-31T14:05:08.086Z,21.27
2022-08-31T14:07:55.697Z,21.26
2022-08-31T14:10:26.195Z,20.76
2022-08-31T14:12:57.325Z,20.78
2022-08-31T14:15:36.538Z,20.99
2022-08-31T14:18:23.796Z,20.87
2022-08-31T14:21:22.649Z,20.82
2022-08-31T14:23:53.505Z,21.03
2022-08-31T14:26:27.950Z,20.74
2022-08-31T14:29:00.150Z,20.48
2022-08-31T14:31:34.667Z,20.67
2022-08-31T14:34:25.580Z,20.50
2022-08-31T14:36:57.522Z,20.60
2022-08-31T14:39:29.872Z,20.50
2022-08-31T14:41:59.838Z,20.56
2022-08-31T14:44:31.103Z,20.51
2022-08-31T14:47:00.373Z,20.53
2022-08-31T14:49:30.626Z,20.45
2022-08-31T14:52:04.589Z,20.45
2022-08-31T14:54:34.669Z,20.77
2022-08-31T14:57:05.690Z,20.78
2022-08-31T14:59:35.632Z,20.63
2022-08-31T15:02:04.605Z,20.63
2022-08-31T15:04:33.232Z,20.76
2022-08-31T15:07:09.547Z,20.83
2022-08-31T15:09:40.442Z,20.64
2022-08-31T15:12:08.252Z,20.64
2022-08-31T15:14:36.909Z,20.45
2022-08-31T15:17:10.795Z,20.65
2022-08-31T15:19:47.829Z,20.54
2022-08-31T15:22:16.063Z,20.64
2022-08-31T15:24:44.701Z,20.57
2022-08-31T15:27:15.019Z,20.69
2022-08-31T15:29:43.643Z,20.49
2022-08-31T15:32:16.479Z,20.52
2022-08-31T15:34:45.895Z,21.33
2022-08-31T15:37:13.363Z,21.42
2022-08-31T15:39:43.306Z,21.33
2022-08-31T15:42:12.319Z,21.79
2022-08-31T15:44:40.774Z,21.39
2022-08-31T15:47:27.834Z,21.65
2022-08-31T15:49:58.611Z,21.57
2022-08-31T15:52:28.070Z,20.93
2022-08-31T15:54:55.860Z,21.10
2022-08-31T15:57:24.223Z,21.25
2022-08-31T15:59:52.585Z,20.86
2022-08-31T16:02:21.111Z,21.69
2022-08-31T16:04:50.678Z,21.92
2022-08-31T16:07:22.616Z,22.16
2022-08-31T16:09:50.300Z,21.85
2022-08-31T16:12:18.854Z,21.63
2022-08-31T16:14:46.819Z,21.49
2022-08-31T16:17:19.342Z,21.56
2022-08-31T16:19:47.321Z,21.43
2022-08-31T16:22:15.580Z,21.10
2022-08-31T16:24:46.859Z,20.57
2022-08-31T16:27:16.640Z,20.32
2022-08-31T16:29:45.641Z,20.39
2022-08-31T16:32:13.281Z,20.41
2022-08-31T16:34:42.604Z,20.44
2022-08-31T16:37:10.443Z,20.56
2022-08-31T16:39:40.392Z,20.85
2022-08-31T16:42:12.295Z,20.83
2022-08-31T16:44:41.051Z,20.61
2022-08-31T16:47:10.510Z,20.66
2022-08-31T16:49:40.282Z,20.60
2022-08-31T16:52:11.036Z,20.95
2022-08-31T16:54:42.660Z,21.18
2022-08-31T16:57:12.731Z,21.15
2022-08-31T16:59:41.808Z,20.89
2022-08-31T17:02:11.693Z,20.90
2022-08-31T17:04:55.774Z,20.65
2022-08-31T17:07:25.240Z,20.52
2022-08-31T17:09:56.982Z,20.99
2022-08-31T17:12:27.207Z,21.09
2022-08-31T17:14:55.971Z,21.26
2022-08-31T17:17:25.559Z,21.04
2022-08-31T17:19:53.406Z,21.17
2022-08-31T17:22:29.888Z,21.13
2022-08-31T17:25:02.666Z,20.62
2022-08-31T17:27:33.380Z,20.26
2022-08-31T17:30:04.917Z,19.96
2022-08-31T17:32:32.651Z,19.86
2022-08-31T17:35:00.240Z,19.93
2022-08-31T17:37:32.619Z,19.71
2022-08-31T17:40:01.008Z,19.58
2022-08-31T17:42:29.568Z,19.49
2022-08-31T17:44:59.105Z,19.55
2022-08-31T17:47:27.247Z,19.52
2022-08-31T17:49:55.917Z,19.39
2022-08-31T17:52:23.730Z,19.30
2022-08-31T17:54:52.311Z,19.37
2022-08-31T17:57:25.025Z,19.32
2022-08-31T17:59:54.763Z,19.27
2022-08-31T18:02:27.570Z,19.09
2022-08-31T18:04:55.851Z,19.10
2022-08-31T18:07:23.559Z,18.98
2022-08-31T18:09:51.166Z,18.88
2022-08-31T18:12:22.020Z,18.80
2022-08-31T18:14:50.070Z,18.72
2022-08-31T18:17:22.314Z,18.75
2022-08-31T18:19:51.536Z,18.68
2022-08-31T18:22:19.873Z,18.59
2022-08-31T18:24:47.703Z,18.56
2022-08-31T18:27:16.327Z,18.51
2022-08-31T18:29:45.468Z,18.43
2022-08-31T18:32:13.737Z,18.38
2022-08-31T18:34:44.152Z,18.31
2022-08-31T18:37:13.819Z,18.22
2022-08-31T18:40:00.068Z,18.16
2022-08-31T18:42:46.280Z,18.03
2022-08-31T18:45:19.222Z,17.92
2022-08-31T18:48:13.628Z,17.65
2022-08-31T18:50:38.529Z,17.65
2022-08-31T18:53:10.756Z,17.62
2022-08-31T18:55:41.106Z,17.62
2022-08-31T19:01:16.252Z,17.37
2022-08-31T19:03:45.504Z,17.27
2022-08-31T19:06:18.387Z,17.27
2022-08-31T19:08:48.174Z,17.03
2022-08-31T19:11:16.504Z,17.08
2022-08-31T19:13:46.651Z,17.10
2022-08-31T19:16:18.588Z,17.07
2022-08-31T19:18:48.538Z,16.92
2022-08-31T19:21:19.352Z,16.83
2022-08-31T19:23:49.129Z,16.72
2022-08-31T19:26:23.558Z,16.66
2022-08-31T19:28:51.599Z,16.72
2022-08-31T19:31:21.194Z,16.63
2022-08-31T19:33:49.315Z,16.45
2022-08-31T19:36:18.500Z,16.32
2022-08-31T19:38:50.800Z,16.16
2022-08-31T19:41:21.917Z,16.11
2022-08-31T19:43:55.962Z,15.97
2022-08-31T19:46:33.265Z,16.03
2022-08-31T19:49:01.317Z,16.08
2022-08-31T19:51:31.430Z,15.83
2022-08-31T19:54:00.887Z,15.92
2022-08-31T19:56:31.386Z,15.82
2022-08-31T19:59:00.826Z,15.76
2022-08-31T20:01:34.094Z,15.79
2022-08-31T20:04:02.963Z,15.80
2022-08-31T20:06:32.538Z,15.70
2022-08-31T20:09:01.512Z,15.77
2022-08-31T20:11:31.226Z,15.90
2022-08-31T20:14:00.124Z,15.85
2022-08-31T20:16:33.806Z,15.75
2022-08-31T20:19:04.272Z,15.59
2022-08-31T20:21:34.833Z,15.46
2022-08-31T20:24:06.798Z,15.44
2022-08-31T20:26:38.287Z,15.45
2022-08-31T20:29:16.094Z,15.43
2022-08-31T20:31:47.108Z,15.25
2022-08-31T20:34:19.421Z,15.28
2022-08-31T20:36:50.083Z,15.23
2022-08-31T20:39:20.698Z,15.19
2022-08-31T20:41:50.494Z,15.06
2022-08-31T20:44:20.564Z,14.86
2022-08-31T20:47:07.776Z,14.80
2022-08-31T20:49:39.048Z,14.77
2022-08-31T20:52:08.351Z,14.60
2022-08-31T20:54:37.795Z,14.36
2022-08-31T20:57:08.992Z,14.33
2022-08-31T20:59:37.928Z,14.27
2022-08-31T21:02:07.746Z,14.27
2022-08-31T21:04:37.397Z,14.21
2022-08-31T21:07:06.635Z,14.14
2022-08-31T21:09:34.760Z,14.06
2022-08-31T21:12:07.057Z,13.97
2022-08-31T21:14:36.503Z,13.95
2022-08-31T21:17:06.056Z,13.98
2022-08-31T21:19:36.083Z,13.99
2022-08-31T21:22:05.230Z,13.93
2022-08-31T21:24:34.917Z,13.97
2022-08-31T21:27:05.777Z,14.02
2022-08-31T21:29:35.385Z,14.02
2022-08-31T21:32:05.087Z,13.91
2022-08-31T21:34:33.365Z,13.83
2022-08-31T21:37:01.021Z,13.68
2022-08-31T21:39:28.597Z,13.60
2022-08-31T21:41:56.418Z,13.44
2022-08-31T21:44:25.417Z,13.36
2022-08-31T21:46:53.269Z,13.21
2022-08-31T21:49:21.354Z,13.25
2022-08-31T21:51:51.930Z,13.23
2022-08-31T21:54:22.335Z,13.17
2022-08-31T21:56:52.517Z,13.24
2022-08-31T21:59:22.587Z,13.06
2022-08-31T22:01:55.356Z,12.93
2022-08-31T22:04:23.468Z,12.94
2022-08-31T22:06:50.939Z,12.96
2022-08-31T22:09:22.288Z,13.01
2022-08-31T22:11:52.623Z,12.98
2022-08-31T22:14:25.760Z,13.03
2022-08-31T22:16:56.190Z,12.94
2022-08-31T22:19:25.533Z,12.94
2022-08-31T22:21:55.013Z,12.86
2022-08-31T22:24:27.660Z,12.87
2022-08-31T22:26:57.762Z,12.93
2022-08-31T22:29:27.374Z,12.92
2022-08-31T22:31:58.226Z,12.96
2022-08-31T22:34:26.473Z,12.96
2022-08-31T22:36:55.311Z,12.95
2022-08-31T22:39:26.148Z,13.01
2022-08-31T22:41:53.954Z,12.91
2022-08-31T22:44:24.978Z,12.89
2022-08-31T22:46:52.993Z,12.85
2022-08-31T22:49:21.823Z,12.85
2022-08-31T22:51:49.324Z,12.99
2022-08-31T22:54:18.226Z,12.89
2022-08-31T22:56:46.176Z,12.98
2022-08-31T22:59:16.283Z,13.12
2022-08-31T23:01:48.215Z,13.22
2022-08-31T23:04:20.070Z,13.25
2022-08-31T23:06:51.383Z,13.26
2022-08-31T23:09:20.869Z,13.24
2022-08-31T23:11:51.349Z,13.24
2022-08-31T23:14:20.839Z,13.06
2022-08-31T23:16:56.967Z,13.01
2022-08-31T23:19:28.282Z,12.98
2022-08-31T23:21:58.200Z,12.99
2022-08-31T23:24:28.967Z,12.89
2022-08-31T23:27:03.794Z,12.84
2022-08-31T23:29:34.367Z,12.70
2022-08-31T23:32:02.697Z,12.86
2022-08-31T23:34:30.170Z,12.87
2022-08-31T23:36:58.973Z,13.03
2022-08-31T23:39:27.140Z,12.95
2022-08-31T23:41:54.666Z,12.87
2022-08-31T23:44:22.506Z,12.74
2022-08-31T23:46:50.034Z,12.66
2022-08-31T23:49:19.966Z,12.66
2022-08-31T23:51:48.218Z,12.63
2022-08-31T23:54:18.102Z,12.73
2022-08-31T23:56:47.608Z,12.68
2022-08-31T23:59:18.755Z,12.57
